Time;durP1;ratioP1;P1;durP2;ratioP2;P2;SDS_P1;SDS_P2;PMS_P1;PMS_P2;Temp;Humidity;BMP_temperature;BMP_pressure;BME280_temperature;BME280_humidity;BME280_pressure;Samples;Min_cycle;Max_cycle;Signal;HPM_P1;HPM_P2
2020/12/05 00:01:34;;;;;;;;;;;3.90;85.30;;;2.85;63.14;93126.63;10445663;28;1443;-86
2020/12/05 00:06:36;;;;;;;;;;;4.60;86.00;;;2.72;63.84;93125.50;10444029;28;2021;-85
2020/12/05 00:11:38;;;;;;;;;;;3.90;85.80;;;2.76;63.66;93135.56;10449034;28;2296;-85
2020/12/05 00:16:40;;;;;;;;;;;3.80;86.30;;;2.96;62.85;93151.16;10442823;28;2061;-84
2020/12/05 00:21:43;;;;;;;;;;;3.90;86.40;;;3.07;61.92;93143.81;10455225;28;1842;-87
2020/12/05 00:26:44;;;;;;;;;;;5.40;86.10;;;3.30;60.70;93107.56;10425464;28;2331;-85
2020/12/05 00:31:46;;;;;;;;;;;4.90;84.80;;;3.30;60.16;93075.72;10447682;28;2236;-86
2020/12/05 00:36:48;;;;;;;;;;;5.80;84.60;;;3.24;60.93;93097.06;10446132;28;2184;-84
2020/12/05 00:41:50;;;;;;;;;;;4.30;83.90;;;3.08;61.21;93102.94;10449184;28;1998;-87
2020/12/05 00:46:51;;;;;;;;;;;4.40;84.20;;;2.97;62.11;93087.16;10443047;28;1594;-85
2020/12/05 00:51:53;;;;;;;;;;;4.10;84.90;;;2.85;62.63;93081.53;10440232;28;1669;-85
2020/12/05 00:56:55;;;;;;;;;;;5.40;86.10;;;2.93;62.46;93085.41;10431886;28;2059;-87
2020/12/05 01:01:57;;;;;;;;;;;4.00;85.50;;;2.94;62.16;93073.72;10435812;28;2004;-86
2020/12/05 01:07:03;;;;;;;;;;;4.60;85.80;;;2.96;62.20;93074.19;10432859;28;2043;-86
2020/12/05 01:12:05;;;;;;;;;;;4.20;85.50;;;2.90;62.28;93064.75;10441570;28;1669;-86
2020/12/05 01:17:07;;;;;;;;;;;4.70;86.00;;;2.77;63.03;93084.84;10449756;28;1703;-84
2020/12/05 01:22:10;;;;;;;;;;;3.90;86.00;;;2.62;64.10;93087.75;10443229;28;1973;-86
2020/12/05 01:27:12;;;;;;;;;;;4.60;87.00;;;2.56;64.27;93073.78;10464619;28;1653;-85
2020/12/05 01:32:14;;;;;;;;;;;5.30;87.80;;;2.43;64.81;93070.00;10445391;28;1915;-85
2020/12/05 01:37:17;;;;;;;;;;;4.50;88.10;;;2.40;64.97;93105.03;10440270;28;1639;-85
2020/12/05 01:42:19;;;;;;;;;;;5.10;88.90;;;2.33;65.58;93095.88;10446485;28;1892;-87
2020/12/05 01:47:21;;;;;;;;;;;3.40;88.40;;;2.22;66.24;93095.22;10459036;28;1919;-87
2020/12/05 01:52:23;;;;;;;;;;;3.40;88.80;;;2.12;67.09;93127.19;10464855;28;2024;-85
2020/12/05 01:57:25;;;;;;;;;;;3.20;89.50;;;2.17;66.94;93104.06;10452266;28;1796;-87
2020/12/05 02:02:28;;;;;;;;;;;4.10;90.00;;;2.10;67.48;93114.22;10469453;28;2289;-87
2020/12/05 02:07:33;;;;;;;;;;;5.20;91.20;;;2.03;68.12;93131.53;10465981;28;2248;-88
2020/12/05 02:12:35;;;;;;;;;;;3.30;90.80;;;2.00;68.06;93132.91;10467094;28;2115;-86
2020/12/05 02:17:37;;;;;;;;;;;3.00;90.90;;;1.95;68.22;93156.78;10441465;28;2001;-87
2020/12/05 02:22:39;;;;;;;;;;;3.00;91.00;;;1.80;69.57;93172.88;10447201;28;2427;-86
2020/12/05 02:27:43;;;;;;;;;;;4.30;92.50;;;1.68;69.67;93189.16;10459830;28;2459;-88
2020/12/05 02:32:46;;;;;;;;;;;3.00;92.30;;;1.58;70.33;93155.63;10469212;28;2413;-86
2020/12/05 02:37:48;;;;;;;;;;;2.80;92.60;;;1.50;70.85;93168.69;10466718;28;2178;-87
2020/12/05 02:42:50;;;;;;;;;;;4.00;93.70;;;1.38;70.71;93169.06;10465720;28;2078;-85
2020/12/05 02:47:52;;;;;;;;;;;3.00;93.50;;;1.42;71.03;93188.63;10464427;28;2386;-87
2020/12/05 02:52:54;;;;;;;;;;;2.50;93.80;;;1.39;71.70;93213.00;10467062;28;2184;-87
2020/12/05 02:57:56;;;;;;;;;;;3.20;94.60;;;1.43;70.82;93221.19;10449616;28;2452;-86
2020/12/05 03:03:03;;;;;;;;;;;3.70;95.00;;;1.44;71.29;93247.38;10448927;28;2177;-86
2020/12/05 03:08:13;;;;;;;;;;;2.90;94.40;;;1.37;71.09;93256.69;10453258;28;2339;-87
2020/12/05 03:13:20;;;;;;;;;;;2.60;94.40;;;1.28;71.54;93280.34;10452429;28;2176;-87
2020/12/05 03:18:22;;;;;;;;;;;4.00;95.50;;;1.06;72.50;93318.56;10450127;28;2038;-88
2020/12/05 03:23:33;;;;;;;;;;;2.10;95.10;;;0.87;74.21;93354.66;10466857;28;1979;-86
2020/12/05 03:28:44;;;;;;;;;;;2.00;97.00;;;0.51;76.43;93367.25;10445431;28;2053;-85
2020/12/05 03:33:52;;;;;;;;;;;1.70;99.10;;;0.25;78.08;93404.31;10438324;28;1728;-86
2020/12/05 03:38:59;;;;;;;;;;;1.40;99.90;;;0.03;79.24;93435.50;10456407;28;1581;-84
2020/12/05 03:44:01;;;;;;;;;;;2.70;99.90;;;-0.06;80.26;93456.38;10467124;28;1886;-87
2020/12/05 03:49:04;;;;;;;;;;;1.80;99.90;;;-0.11;80.82;93495.97;10447500;28;2042;-84
2020/12/05 03:54:08;;;;;;;;;;;1.00;99.90;;;-0.14;81.56;93485.13;10442746;28;2364;-85
2020/12/05 03:59:10;;;;;;;;;;;2.30;99.90;;;-0.15;81.87;93500.19;10441876;28;1835;-85
2020/12/05 04:04:12;;;;;;;;;;;1.80;99.90;;;-0.07;81.69;93533.22;10441435;28;1875;-88
2020/12/05 04:09:14;;;;;;;;;;;2.40;99.90;;;-0.07;81.88;93547.19;10460272;28;1475;-88
2020/12/05 04:14:16;;;;;;;;;;;1.10;99.90;;;0.09;81.86;93560.44;10450461;28;1665;-88
2020/12/05 04:19:18;;;;;;;;;;;1.10;99.90;;;0.16;81.43;93572.34;10461726;28;1885;-86
2020/12/05 04:24:19;;;;;;;;;;;2.60;99.90;;;0.26;81.21;93576.84;10457569;28;2093;-87
2020/12/05 04:29:24;;;;;;;;;;;1.20;99.90;;;0.42;81.10;93591.66;10446733;28;2012;-86
2020/12/05 04:34:26;;;;;;;;;;;3.50;99.90;;;0.56;80.53;93617.56;10461447;28;1918;-84
2020/12/05 04:39:29;;;;;;;;;;;1.50;99.90;;;0.66;80.84;93630.81;10450086;28;2091;-85
2020/12/05 04:44:30;;;;;;;;;;;1.60;99.90;;;0.72;80.94;93642.97;10450661;28;2023;-86
2020/12/05 04:49:33;;;;;;;;;;;1.70;99.90;;;0.76;80.72;93681.03;10455932;28;1911;-82
2020/12/05 04:54:35;;;;;;;;;;;2.50;99.90;;;0.85;80.82;93679.47;10457618;28;2027;-86
2020/12/05 04:59:37;;;;;;;;;;;1.90;99.90;;;0.92;80.74;93664.13;10458585;28;1702;-84
2020/12/05 05:04:38;;;;;;;;;;;2.00;99.90;;;0.92;80.83;93664.13;10452774;28;2181;-85
2020/12/05 05:09:40;;;;;;;;;;;3.90;99.90;;;0.90;81.02;93695.34;10448614;28;2066;-86
2020/12/05 05:14:42;;;;;;;;;;;0.80;99.90;;;0.85;81.83;93721.78;10454847;28;2157;-86
2020/12/05 05:19:44;;;;;;;;;;;3.90;99.90;;;0.87;82.16;93737.38;10446471;28;1704;-86
2020/12/05 05:24:46;;;;;;;;;;;3.50;99.90;;;0.90;82.32;93761.47;10463883;28;2011;-88
2020/12/05 05:29:50;;;;;;;;;;;2.20;99.90;;;0.96;82.40;93775.50;10464855;28;1912;-85
2020/12/05 05:34:52;;;;;;;;;;;2.80;99.90;;;0.99;82.63;93785.56;10464393;28;2035;-86
2020/12/05 05:39:56;;;;;;;;;;;2.00;99.90;;;0.97;83.22;93775.25;10460477;28;2116;-86
2020/12/05 05:44:58;;;;;;;;;;;2.00;99.90;;;0.99;83.32;93781.06;10449036;28;2008;-86
2020/12/05 05:50:00;;;;;;;;;;;3.30;99.90;;;0.99;83.39;93801.41;10453410;28;1978;-86
2020/12/05 05:55:02;;;;;;;;;;;2.10;99.90;;;0.95;83.52;93827.59;10450345;28;1660;-85
2020/12/05 06:00:04;;;;;;;;;;;2.50;99.90;;;0.94;83.58;93847.19;10448043;28;1705;-86
2020/12/05 06:05:06;;;;;;;;;;;3.40;99.90;;;0.99;83.82;93855.13;10455219;28;2000;-87
2020/12/05 06:10:08;;;;;;;;;;;2.90;99.90;;;1.04;83.49;93863.09;10464231;28;1968;-84
2020/12/05 06:15:13;;;;;;;;;;;2.10;99.90;;;1.16;83.41;93899.13;10468105;28;1893;-87
2020/12/05 06:20:17;;;;;;;;;;;2.00;99.90;;;1.23;83.21;93897.00;10451829;28;2060;-87
2020/12/05 06:25:19;;;;;;;;;;;2.60;99.90;;;1.21;82.82;93862.06;10476873;28;1974;-87
2020/12/05 06:30:21;;;;;;;;;;;3.30;99.90;;;1.28;82.61;93883.78;10454086;28;1790;-83
2020/12/05 06:35:24;;;;;;;;;;;2.80;99.90;;;1.28;82.52;93857.31;10468612;28;1741;-86
2020/12/05 06:40:29;;;;;;;;;;;2.30;99.90;;;1.30;82.74;93836.66;10452813;28;1941;-85
2020/12/05 06:45:31;;;;;;;;;;;2.70;99.90;;;1.33;82.66;93875.84;10450040;28;1965;-85
2020/12/05 06:50:33;;;;;;;;;;;3.50;99.90;;;1.43;82.84;93880.38;10435968;28;1927;-85
2020/12/05 06:55:36;;;;;;;;;;;2.30;99.90;;;1.53;82.44;93944.75;10436336;28;1964;-86
2020/12/05 07:00:38;;;;;;;;;;;2.50;99.90;;;1.58;81.92;93979.16;10448148;28;1888;-85
2020/12/05 07:05:40;;;;;;;;;;;4.50;99.90;;;1.66;81.46;93967.28;10448179;28;1890;-86
2020/12/05 07:10:44;;;;;;;;;;;2.60;99.90;;;1.76;81.29;93977.09;10471364;28;1517;-86
2020/12/05 07:15:46;;;;;;;;;;;2.60;99.90;;;1.80;81.11;93967.56;10463351;28;1615;-87
2020/12/05 07:20:50;;;;;;;;;;;3.10;99.90;;;1.78;80.58;93959.06;10482993;28;3659;-86
2020/12/05 07:25:54;;;;;;;;;;;4.70;99.90;;;1.79;81.37;93989.81;10462383;28;2052;-86
2020/12/05 07:30:57;;;;;;;;;;;3.70;99.90;;;1.85;81.12;94004.66;10438619;28;1759;-85
2020/12/05 07:35:59;;;;;;;;;;;2.80;99.90;;;1.96;81.16;94053.16;10455978;28;1626;-87
2020/12/05 07:41:01;;;;;;;;;;;2.90;99.90;;;2.09;80.37;94039.41;10444293;28;1872;-88
2020/12/05 07:46:03;;;;;;;;;;;4.40;99.90;;;2.09;80.49;94052.66;10449825;28;1882;-86
2020/12/05 07:51:05;;;;;;;;;;;4.20;99.90;;;2.15;80.23;94063.00;10431697;28;1999;-87
2020/12/05 07:56:07;;;;;;;;;;;3.10;99.90;;;2.31;79.56;94068.34;10449944;28;1948;-84
2020/12/05 08:01:09;;;;;;;;;;;4.50;99.90;;;2.67;77.86;94075.28;10441785;28;2005;-85
2020/12/05 08:06:11;;;;;;;;;;;4.80;99.90;;;2.62;78.58;94090.38;10434711;28;1886;-85
2020/12/05 08:11:12;;;;;;;;;;;5.10;99.90;;;2.86;76.77;94083.50;10447992;28;1913;-84
2020/12/05 08:16:14;;;;;;;;;;;3.60;99.90;;;3.11;76.14;94085.31;10438976;28;1980;-87
2020/12/05 08:21:16;;;;;;;;;;;3.90;99.90;;;3.17;75.79;94070.16;10449909;28;1955;-86
2020/12/05 08:26:18;;;;;;;;;;;4.10;99.90;;;3.24;75.56;94090.09;10456457;28;1891;-87
2020/12/05 08:31:20;;;;;;;;;;;5.60;99.90;;;3.25;74.90;94128.84;10457574;28;2011;-86
2020/12/05 08:36:22;;;;;;;;;;;6.00;99.90;;;3.02;75.29;94118.78;10449732;28;1938;-87
2020/12/05 08:41:24;;;;;;;;;;;4.10;99.90;;;2.65;77.64;94124.34;10442686;28;1924;-87
2020/12/05 08:46:27;;;;;;;;;;;4.20;99.90;;;2.72;77.34;94168.13;10462195;28;2108;-86
2020/12/05 08:51:29;;;;;;;;;;;5.30;99.90;;;2.83;77.21;94192.03;10446143;28;1833;-87
2020/12/05 08:56:31;;;;;;;;;;;3.80;99.90;;;2.96;76.44;94210.88;10448630;28;1972;-85
2020/12/05 09:01:33;;;;;;;;;;;3.90;99.90;;;2.91;76.80;94199.44;10443260;28;1600;-86
2020/12/05 09:06:36;;;;;;;;;;;4.90;99.90;;;2.85;77.16;94179.28;10450208;28;1981;-85
2020/12/05 09:11:38;;;;;;;;;;;3.90;99.90;;;3.03;76.83;94200.00;10450871;28;1783;-86
2020/12/05 09:16:41;;;;;;;;;;;3.90;99.90;;;3.33;75.81;94193.91;10450998;28;2032;-86
2020/12/05 09:21:47;;;;;;;;;;;4.20;99.90;;;3.40;74.53;94189.13;10457614;28;1602;-88
2020/12/05 09:26:49;;;;;;;;;;;4.30;99.90;;;3.39;75.31;94178.75;10448894;28;1891;-87
2020/12/05 09:31:51;;;;;;;;;;;4.70;99.90;;;3.13;75.54;94178.78;10451570;28;1707;-88
2020/12/05 09:36:53;;;;;;;;;;;5.60;99.90;;;3.44;75.10;94173.44;10437886;28;2047;-88
2020/12/05 09:41:55;;;;;;;;;;;4.90;99.90;;;3.65;74.66;94182.97;10441326;28;1615;-87
2020/12/05 09:46:57;;;;;;;;;;;5.10;99.90;;;3.68;74.48;94163.81;10450148;28;2003;-85
2020/12/05 09:51:59;;;;;;;;;;;4.60;99.90;;;3.65;74.01;94179.50;10450972;28;1961;-87
2020/12/05 09:57:01;;;;;;;;;;;5.00;99.90;;;3.70;75.02;94182.16;10438108;28;1900;-88
2020/12/05 10:02:04;;;;;;;;;;;4.50;99.90;;;3.76;74.07;94183.75;10450807;28;2089;-88
2020/12/05 10:07:06;;;;;;;;;;;4.70;99.90;;;3.60;75.00;94193.59;10471827;28;1879;-86
2020/12/05 10:12:08;;;;;;;;;;;5.90;99.90;;;3.60;75.44;94204.22;10452565;28;2034;-87
2020/12/05 10:17:10;;;;;;;;;;;4.50;99.90;;;3.73;74.64;94226.78;10480491;28;1946;-87
2020/12/05 10:22:12;;;;;;;;;;;5.30;99.90;;;3.73;74.54;94224.13;10450065;28;1430;-86
2020/12/05 10:27:18;;;;;;;;;;;5.40;99.90;;;3.71;74.58;94229.72;10462158;28;1995;-87
2020/12/05 10:32:23;;;;;;;;;;;5.70;99.90;;;3.69;74.44;94218.56;10447550;28;1908;-89
2020/12/05 10:37:25;;;;;;;;;;;5.50;99.90;;;3.63;74.70;94217.00;10459523;28;1869;-85
2020/12/05 10:42:27;;;;;;;;;;;5.60;99.90;;;3.19;76.39;94206.91;10457762;28;2071;-87
2020/12/05 10:47:29;;;;;;;;;;;6.10;99.90;;;3.17;77.21;94224.16;10455575;28;1882;-86
2020/12/05 10:52:31;;;;;;;;;;;5.10;99.90;;;3.06;78.27;94209.31;10449076;28;1995;-87
2020/12/05 10:57:33;;;;;;;;;;;5.10;99.90;;;3.06;78.33;94204.78;10461418;28;2105;-88
2020/12/05 11:02:35;;;;;;;;;;;4.00;99.90;;;3.11;78.35;94204.78;10467116;28;2182;-87
2020/12/05 11:07:37;;;;;;;;;;;6.10;99.90;;;3.15;78.34;94203.19;10456236;28;1973;-87
2020/12/05 11:12:39;;;;;;;;;;;5.50;99.90;;;3.04;78.59;94204.25;10448456;28;1659;-89
2020/12/05 11:17:41;;;;;;;;;;;4.10;99.90;;;2.78;80.72;94213.25;10453824;28;2011;-84
2020/12/05 11:22:47;;;;;;;;;;;5.20;99.90;;;2.79;81.57;94225.44;10448101;28;1981;-86
2020/12/05 11:27:51;;;;;;;;;;;5.20;99.90;;;2.61;84.09;94227.53;10449648;28;1630;-88
2020/12/05 11:32:53;;;;;;;;;;;5.20;99.90;;;2.58;84.46;94225.41;10423234;28;2320;-84
2020/12/05 11:37:55;;;;;;;;;;;3.60;99.90;;;2.59;85.28;94219.03;10435434;28;2052;-86
2020/12/05 11:42:56;;;;;;;;;;;4.80;99.90;;;2.60;85.85;94220.63;10424213;28;1910;-86
2020/12/05 11:47:58;;;;;;;;;;;4.90;99.90;;;2.47;85.36;94205.19;10444477;28;1721;-86
2020/12/05 11:53:00;;;;;;;;;;;5.50;99.90;;;2.47;86.59;94207.84;10443105;28;1953;-86
2020/12/05 11:58:02;;;;;;;;;;;3.50;99.90;;;2.36;87.44;94201.75;10430172;28;1900;-86
2020/12/05 12:03:04;;;;;;;;;;;3.40;99.90;;;2.32;87.19;94191.91;10441095;28;1883;-86
2020/12/05 12:08:06;;;;;;;;;;;4.30;99.90;;;2.07;88.82;94192.59;10424947;28;2107;-85
2020/12/05 12:13:10;;;;;;;;;;;3.10;99.90;;;2.01;88.62;94189.13;10438444;28;1972;-85
2020/12/05 12:18:17;;;;;;;;;;;4.30;99.90;;;2.09;88.25;94185.97;10437040;28;1668;-85
2020/12/05 12:23:22;;;;;;;;;;;3.20;99.90;;;2.15;89.97;94200.84;10449013;28;1888;-86
2020/12/05 12:28:26;;;;;;;;;;;3.90;99.90;;;2.25;89.30;94183.41;10441804;28;2249;-86
2020/12/05 12:33:28;;;;;;;;;;;3.30;99.90;;;2.07;88.29;94171.41;10447379;28;1995;-85
2020/12/05 12:38:30;;;;;;;;;;;4.80;99.90;;;2.08;90.29;94170.34;10442959;28;1889;-85
2020/12/05 12:43:32;;;;;;;;;;;4.80;99.90;;;2.15;90.42;94174.34;10451817;28;2063;-85
2020/12/05 12:48:40;;;;;;;;;;;3.10;99.90;;;2.07;89.29;94156.28;10444294;28;1918;-87
2020/12/05 12:53:44;;;;;;;;;;;3.50;99.90;;;2.14;91.58;94150.75;10460202;28;1612;-87
2020/12/05 12:58:50;;;;;;;;;;;3.10;99.90;;;2.38;90.92;94151.09;10461414;28;1997;-85
2020/12/05 13:03:53;;;;;;;;;;;3.30;99.90;;;2.29;90.33;94144.69;10459400;28;1964;-85
2020/12/05 13:08:56;;;;;;;;;;;5.00;99.90;;;2.25;89.78;94135.69;10457615;28;1755;-86
2020/12/05 13:13:58;;;;;;;;;;;4.30;99.90;;;2.42;90.93;94139.69;10442148;28;2033;-82
2020/12/05 13:19:02;;;;;;;;;;;3.40;99.90;;;2.59;91.40;94141.31;10447446;28;1992;-86
2020/12/05 13:24:04;;;;;;;;;;;4.20;99.90;;;2.56;89.64;94134.69;10445286;28;1919;-87
2020/12/05 13:29:07;;;;;;;;;;;3.50;99.90;;;2.41;90.97;94134.63;10438983;28;1790;-85
2020/12/05 13:34:09;;;;;;;;;;;5.60;99.90;;;2.38;91.22;94127.22;10441150;28;1830;-85
2020/12/05 13:39:14;;;;;;;;;;;4.20;99.90;;;2.41;92.35;94130.13;10442216;28;1944;-86
2020/12/05 13:44:16;;;;;;;;;;;3.80;99.90;;;2.35;90.94;94128.53;10447715;28;2079;-86
2020/12/05 13:49:18;;;;;;;;;;;5.00;99.90;;;2.37;91.22;94107.06;10443432;28;2136;-88
2020/12/05 13:54:20;;;;;;;;;;;5.20;99.90;;;2.36;91.45;94110.78;10441249;28;1979;-86
2020/12/05 13:59:22;;;;;;;;;;;3.40;99.90;;;2.37;91.34;94102.56;10462318;28;1998;-85
2020/12/05 14:04:25;;;;;;;;;;;4.10;99.90;;;2.35;91.36;94093.25;10441347;28;2049;-87
2020/12/05 14:09:27;;;;;;;;;;;3.40;99.90;;;2.35;91.65;94102.00;10443900;28;1900;-84
2020/12/05 14:14:33;;;;;;;;;;;3.30;99.90;;;2.36;91.20;94092.22;10429408;28;2077;-87
2020/12/05 14:19:42;;;;;;;;;;;3.40;99.90;;;2.39;91.11;94094.34;10445724;28;1924;-86
2020/12/05 14:24:45;;;;;;;;;;;3.40;99.90;;;2.37;91.12;94085.84;10458302;28;2029;-86
2020/12/05 14:29:48;;;;;;;;;;;3.30;99.90;;;2.37;90.92;94081.34;10436588;28;1911;-85
2020/12/05 14:34:50;;;;;;;;;;;3.40;99.90;;;2.36;90.96;94081.63;10443322;28;1951;-86
2020/12/05 14:39:52;;;;;;;;;;;5.10;99.90;;;2.38;90.60;94072.31;10433099;28;1584;-86
2020/12/05 14:44:54;;;;;;;;;;;3.60;99.90;;;2.42;90.53;94072.59;10438824;28;2008;-86
2020/12/05 14:49:55;;;;;;;;;;;5.20;99.90;;;2.37;91.39;94062.78;10439264;28;1873;-84
2020/12/05 14:54:57;;;;;;;;;;;3.40;99.90;;;2.44;91.29;94075.78;10441408;28;1885;-87
2020/12/05 14:59:59;;;;;;;;;;;3.50;99.90;;;2.46;91.80;94062.25;10457372;28;1846;-85
2020/12/05 15:05:02;;;;;;;;;;;3.40;99.90;;;2.34;90.84;94054.53;10459930;28;1977;-86
2020/12/05 15:10:04;;;;;;;;;;;4.60;99.90;;;2.22;91.94;94028.28;10457432;28;1850;-88
2020/12/05 15:15:09;;;;;;;;;;;3.30;99.90;;;2.05;91.87;94047.09;10468239;28;1887;-87
2020/12/05 15:20:11;;;;;;;;;;;3.20;99.90;;;1.99;92.37;94042.06;10439387;28;2127;-86
2020/12/05 15:25:12;;;;;;;;;;;3.10;99.90;;;1.90;92.56;94039.91;10436932;28;2047;-86
2020/12/05 15:30:14;;;;;;;;;;;3.00;99.90;;;1.85;93.01;94036.47;10439617;28;2348;-84
2020/12/05 15:35:16;;;;;;;;;;;4.70;99.90;;;1.80;93.10;94023.19;10433542;28;2073;-87
2020/12/05 15:40:18;;;;;;;;;;;2.90;99.90;;;1.78;93.31;94030.59;10441424;28;1972;-87
2020/12/05 15:45:32;;;;;;;;;;;3.60;99.90;;;1.82;93.91;94013.91;10444063;28;2383;-86
2020/12/05 15:50:45;;;;;;;;;;;2.80;99.90;;;1.86;94.11;94006.25;10442216;28;1937;-88
2020/12/05 15:55:58;;;;;;;;;;;2.70;99.90;;;1.84;93.77;93989.81;10481790;28;1856;-86
2020/12/05 16:01:00;;;;;;;;;;;3.50;99.90;;;1.75;93.75;93963.03;10429089;28;1943;-86
2020/12/05 16:06:02;;;;;;;;;;;2.70;99.90;;;1.56;94.06;93959.31;10436572;28;2562;-83
2020/12/05 16:11:04;;;;;;;;;;;4.90;99.90;;;1.51;93.99;93946.84;10436579;28;1943;-85
2020/12/05 16:16:05;;;;;;;;;;;3.70;99.90;;;1.57;94.46;93942.34;10449794;28;1977;-85
2020/12/05 16:21:07;;;;;;;;;;;3.20;99.90;;;1.50;94.31;93937.31;10444366;28;1765;-87
2020/12/05 16:26:09;;;;;;;;;;;2.60;99.90;;;1.32;94.54;93937.78;10448095;28;1986;-86
2020/12/05 16:31:11;;;;;;;;;;;2.40;99.90;;;1.21;94.49;93962.63;10438566;28;1738;-83
2020/12/05 16:36:13;;;;;;;;;;;2.40;99.90;;;1.10;94.80;93948.56;10439827;28;2063;-85
2020/12/05 16:41:15;;;;;;;;;;;2.20;99.90;;;1.10;94.88;93961.00;10431249;28;2130;-84
2020/12/05 16:46:16;;;;;;;;;;;2.20;99.90;;;1.10;94.95;93987.47;10440976;28;1923;-86
2020/12/05 16:51:18;;;;;;;;;;;2.90;99.90;;;1.11;94.59;93978.47;10442191;28;2000;-83
2020/12/05 16:56:21;;;;;;;;;;;3.30;99.90;;;1.11;94.68;93962.59;10438930;28;1972;-85
2020/12/05 17:01:23;;;;;;;;;;;2.20;99.90;;;1.02;94.77;93957.81;10462222;28;1664;-83
2020/12/05 17:06:25;;;;;;;;;;;3.80;99.90;;;1.07;94.60;93955.16;10444196;28;2476;-85
2020/12/05 17:11:26;;;;;;;;;;;3.40;99.90;;;1.03;94.17;93969.97;10436741;28;2118;-86
2020/12/05 17:16:43;;;;;;;;;;;3.40;99.90;;;0.98;94.13;93975.25;10470560;28;2039;-86
2020/12/05 17:21:46;;;;;;;;;;;2.00;99.90;;;0.87;94.07;93967.50;10454936;28;1572;-86
2020/12/05 17:26:48;;;;;;;;;;;2.00;99.90;;;0.77;94.47;93989.44;10459948;28;2233;-85
2020/12/05 17:31:51;;;;;;;;;;;1.80;99.90;;;0.71;94.64;93980.66;10490279;28;2296;-87
2020/12/05 17:36:53;;;;;;;;;;;1.80;99.90;;;0.75;94.73;93965.06;10450011;28;2098;-83
2020/12/05 17:41:55;;;;;;;;;;;1.70;99.90;;;0.58;94.94;93975.84;10458415;28;2101;-86
2020/12/05 17:46:57;;;;;;;;;;;4.40;99.90;;;0.69;95.17;93993.34;10463949;28;1886;-83
2020/12/05 17:51:59;;;;;;;;;;;2.50;99.90;;;0.74;94.84;93974.84;10468905;28;1447;-86
2020/12/05 17:57:00;;;;;;;;;;;1.80;99.90;;;0.66;94.90;93979.84;10455178;28;1947;-86
2020/12/05 18:02:02;;;;;;;;;;;1.80;99.90;;;0.61;94.90;93985.09;10464957;28;2372;-86
2020/12/05 18:07:04;;;;;;;;;;;1.70;99.90;;;0.57;94.72;94013.88;10463548;28;1958;-82
2020/12/05 18:12:06;;;;;;;;;;;1.70;99.90;;;0.57;94.83;93990.06;10463088;28;1467;-86
2020/12/05 18:17:08;;;;;;;;;;;1.70;99.90;;;0.49;95.02;93993.19;10458825;28;2245;-85
2020/12/05 18:22:10;;;;;;;;;;;1.60;99.90;;;0.64;95.10;93995.16;10473415;28;1812;-83
2020/12/05 18:27:12;;;;;;;;;;;1.60;99.90;;;0.68;95.07;94001.53;10459100;28;2256;-85
2020/12/05 18:32:14;;;;;;;;;;;1.70;99.90;;;0.64;95.16;93989.88;10463116;28;1650;-86
2020/12/05 18:37:16;;;;;;;;;;;2.90;99.90;;;0.63;95.09;93982.97;10449990;28;2119;-83
2020/12/05 18:42:18;;;;;;;;;;;1.70;99.90;;;0.58;95.08;94022.63;10451433;28;1988;-83
2020/12/05 18:47:19;;;;;;;;;;;1.70;99.90;;;0.57;95.02;94028.94;10447384;28;1940;-83
2020/12/05 18:52:21;;;;;;;;;;;1.70;99.90;;;0.61;95.25;94004.41;10447925;28;1916;-84
2020/12/05 18:57:23;;;;;;;;;;;1.60;99.90;;;0.66;95.17;93987.78;10445022;28;2019;-85
2020/12/05 19:02:25;;;;;;;;;;;1.70;99.90;;;0.50;94.92;93982.38;10441517;28;1995;-84
2020/12/05 19:07:27;;;;;;;;;;;1.90;99.90;;;0.63;95.09;93959.97;10456713;28;1985;-85
2020/12/05 19:12:28;;;;;;;;;;;2.10;99.90;;;0.66;95.39;93977.19;10446907;28;1960;-85
2020/12/05 19:17:30;;;;;;;;;;;1.60;99.90;;;0.68;95.17;94002.31;10441559;28;1893;-83
2020/12/05 19:22:33;;;;;;;;;;;1.70;99.90;;;0.58;94.97;93978.47;10445557;28;1981;-83
2020/12/05 19:27:35;;;;;;;;;;;1.60;99.90;;;0.54;94.67;93938.53;10466717;28;1976;-84
2020/12/05 19:32:37;;;;;;;;;;;2.20;99.90;;;0.48;95.64;93938.75;10442831;28;1864;-83
2020/12/05 19:37:39;;;;;;;;;;;1.50;99.90;;;0.46;95.50;93952.22;10440256;28;1592;-86
2020/12/05 19:42:41;;;;;;;;;;;1.50;99.90;;;0.54;95.47;93983.47;10434789;28;1720;-85
2020/12/05 19:47:42;;;;;;;;;;;2.60;99.90;;;0.49;94.96;93982.63;10442040;28;1997;-85
2020/12/05 19:52:44;;;;;;;;;;;1.50;99.90;;;0.49;95.07;93942.97;10443645;28;1822;-83
2020/12/05 19:57:46;;;;;;;;;;;1.50;99.90;;;0.38;95.44;93897.19;10446287;28;1864;-85
2020/12/05 20:02:47;;;;;;;;;;;1.40;99.90;;;0.33;95.96;93902.44;10442328;28;1885;-84
2020/12/05 20:07:49;;;;;;;;;;;3.10;99.90;;;0.31;95.95;93896.59;10433612;28;2392;-86
2020/12/05 20:12:51;;;;;;;;;;;1.30;99.90;;;0.40;95.86;93940.03;10435018;28;1616;-84
2020/12/05 20:17:54;;;;;;;;;;;1.70;99.90;;;0.36;95.95;93981.22;10445495;28;2024;-85
2020/12/05 20:22:56;;;;;;;;;;;1.30;99.90;;;0.40;96.13;93982.31;10450309;28;1609;-86
2020/12/05 20:27:58;;;;;;;;;;;1.40;99.90;;;0.30;95.72;93966.38;10444163;28;1883;-85
2020/12/05 20:33:00;;;;;;;;;;;1.70;99.90;;;0.20;96.08;93958.38;10446812;28;2016;-85
2020/12/05 20:38:01;;;;;;;;;;;1.20;99.90;;;0.18;96.15;93960.47;10436014;28;1922;-82
2020/12/05 20:43:03;;;;;;;;;;;1.20;99.90;;;0.29;96.23;93938.34;10452289;28;1570;-87
2020/12/05 20:48:05;;;;;;;;;;;1.40;99.90;;;0.38;96.23;93947.41;10448373;28;1911;-86
2020/12/05 20:53:08;;;;;;;;;;;2.80;99.90;;;0.35;95.75;93945.28;10462966;28;1932;-86
2020/12/05 20:58:10;;;;;;;;;;;1.30;99.90;;;0.42;95.91;93939.75;10438910;28;2096;-85
2020/12/05 21:03:12;;;;;;;;;;;1.70;99.90;;;0.27;95.90;93935.19;10469578;28;1912;-86
2020/12/05 21:08:15;;;;;;;;;;;1.30;99.90;;;0.27;96.15;93961.63;10460084;28;2007;-85
2020/12/05 21:13:17;;;;;;;;;;;1.20;99.90;;;0.33;96.15;93963.25;10439952;28;1763;-85
2020/12/05 21:18:19;;;;;;;;;;;2.60;99.90;;;0.48;95.96;93983.69;10449273;28;1817;-86
2020/12/05 21:23:20;;;;;;;;;;;1.40;99.90;;;0.49;95.95;93946.41;10463306;28;1752;-86
2020/12/05 21:28:22;;;;;;;;;;;1.50;99.90;;;0.59;95.66;93929.03;10461974;28;1914;-84
2020/12/05 21:33:24;;;;;;;;;;;3.60;99.90;;;0.49;95.36;93892.75;10450254;28;2529;-85
2020/12/05 21:38:29;;;;;;;;;;;1.60;99.90;;;0.46;95.43;93914.41;10457606;28;1400;-84
2020/12/05 21:43:33;;;;;;;;;;;2.90;99.90;;;0.55;95.57;93947.25;10457521;28;1900;-86
2020/12/05 21:48:36;;;;;;;;;;;1.70;99.90;;;0.60;95.25;93947.28;10470905;28;1883;-86
2020/12/05 21:53:37;;;;;;;;;;;2.60;99.90;;;0.58;95.04;93967.91;10456997;28;1672;-84
2020/12/05 21:58:39;;;;;;;;;;;1.70;99.90;;;0.54;94.75;93964.16;10461743;28;1796;-83
2020/12/05 22:03:41;;;;;;;;;;;1.60;99.90;;;0.54;95.01;93933.22;10464270;28;1953;-84
2020/12/05 22:08:44;;;;;;;;;;;1.60;99.90;;;0.58;94.95;93945.94;10459915;28;1894;-86
2020/12/05 22:13:47;;;;;;;;;;;1.60;99.90;;;0.47;94.80;93966.25;10469982;28;1680;-86
2020/12/05 22:18:49;;;;;;;;;;;3.10;99.90;;;0.38;95.08;93968.56;10455876;28;1698;-83
2020/12/05 22:23:50;;;;;;;;;;;2.70;99.90;;;0.58;95.23;93961.81;10467584;28;2097;-85
2020/12/05 22:28:52;;;;;;;;;;;1.50;99.90;;;0.55;94.69;93931.38;10443621;28;1716;-82
2020/12/05 22:33:58;;;;;;;;;;;2.80;99.90;;;0.60;94.58;93920.84;10448608;28;1934;-81
2020/12/05 22:39:04;;;;;;;;;;;2.10;99.90;;;0.41;94.32;93912.53;10455386;28;1992;-84
2020/12/05 22:44:06;;;;;;;;;;;1.40;99.90;;;0.26;95.06;93915.88;10432905;28;1973;-85
2020/12/05 22:49:08;;;;;;;;;;;1.20;99.90;;;0.23;95.30;93911.09;10456205;28;2001;-83
2020/12/05 22:54:12;;;;;;;;;;;1.30;99.90;;;0.23;95.31;93902.38;10421767;28;1982;-84
2020/12/05 22:59:14;;;;;;;;;;;2.00;99.90;;;0.10;96.10;93869.28;10451354;28;2022;-85
2020/12/05 23:04:16;;;;;;;;;;;2.00;99.90;;;0.18;96.14;93894.41;10444217;28;2307;-81
2020/12/05 23:09:20;;;;;;;;;;;3.30;99.90;;;0.13;96.14;93920.81;10427929;28;2166;-82
2020/12/05 23:14:22;;;;;;;;;;;2.40;99.90;;;0.33;96.61;93942.09;10462505;28;1982;-82
2020/12/05 23:19:26;;;;;;;;;;;1.20;99.90;;;0.50;95.96;93950.63;10441868;28;1947;-84
2020/12/05 23:24:28;;;;;;;;;;;1.30;99.90;;;0.60;96.07;93972.94;10445891;28;1905;-82
2020/12/05 23:29:33;;;;;;;;;;;1.50;99.90;;;0.68;95.77;93912.41;10440754;28;2048;-84
2020/12/05 23:34:36;;;;;;;;;;;3.00;99.90;;;0.48;95.68;93921.03;10435368;28;2032;-84
2020/12/05 23:39:38;;;;;;;;;;;1.80;99.90;;;0.53;94.90;93905.19;10445736;28;1646;-82
2020/12/05 23:44:41;;;;;;;;;;;1.90;99.90;;;0.44;95.12;93885.56;10445379;28;1968;-83